Kezdőlap
METAR-TAF:

METAR-TAF

Repülőterek :

Decorah Municipal Airport

Decorah, Iowa, Amerikai Egyesült Államok

földrajzi szélesség: 43-17N, földrajzi hosszúság: 091-44W, magasság: 353 m

Jelenlegi meteorológiai megfigyelések

A jelentés 24 perccel ezelõtt készült, 15:15 UTC
Észak-északnyugati szél 9 kt széllökések: 15 kt
Hőmérséklet -2°C
Páratartalom 80%
Légköri nyomás 1026 hPa
Látótávolság: 16.1 km
Kevés felhő 1600 lábon

METAR: KDEH 061515Z AUTO 34009G15KT 10SM FEW016 M02/M05 A3030 RMK AO2

Idő: 09:39 (15:39 UTC)


TAF: hiányzik

Meteorológiai megfigyelések és előrejelzések több, mint 4000 repülőtéren (METAR és TAF jelentéseket).

A térképen piros és sárga pontok jelzik az elérhető meteorológiai állomásokat.

Mozgassa az egeret a pont fölött, hogy megjelenjen az állomás neve.

Azután kattintson az időjárási megfigyelések és előrejelzések megtekintéséhez.

A térkép megváltoztatása: kattintson a fekete keresztel jelölt zöld gombra ráközelítéshez, a vonallal jelölt zöld gombra távolításhoz, vagy a zöld nyilakra a szomszédos térképek eléréséhez.


METAR-TAF: